Wetterdaten: Woche 19.04.10 - 25.04.10 (KW16)
Datum Zeit Temp. A. Feuchte A. Luftdruck Regen Wind Richtung Taupunkt Windchill Windben
19.04.2010 00:00 6,4 C 75 % 1011,5 hPa 0,0 l/m 0,0 km/h NO 2,3 C 6,4 C 0,0 km/h
19.04.2010 01:00 5,6 C 77 % 1011,8 hPa 0,0 l/m 0,0 km/h SO 1,9 C 5,6 C 0,0 km/h
19.04.2010 02:00 5,9 C 78 % 1011,6 hPa 0,0 l/m 0,0 km/h O 2,4 C 5,9 C 0,0 km/h
19.04.2010 03:00 4,9 C 79 % 1011,7 hPa 0,0 l/m 0,0 km/h O 1,6 C 4,9 C 0,0 km/h
19.04.2010 04:00 5,0 C 80 % 1011,9 hPa 0,0 l/m 0,0 km/h O-SO 1,8 C 5,0 C 0,0 km/h
19.04.2010 05:00 4,3 C 82 % 1011,8 hPa 0,0 l/m 0,0 km/h O-NO 1,5 C 4,3 C 0,0 km/h
19.04.2010 06:00 4,7 C 81 % 1011,9 hPa 0,0 l/m 0,0 km/h O 1,7 C 4,7 C 0,0 km/h
19.04.2010 07:00 7,4 C 79 % 1012,5 hPa 0,0 l/m 0,0 km/h SO 4,0 C 7,4 C 0,0 km/h
19.04.2010 08:00 13,5 C 65 % 1012,5 hPa 0,0 l/m 0,0 km/h S-SO 7,1 C 13,5 C 0,0 km/h
19.04.2010 09:00 18,2 C 54 % 1012,8 hPa 0,0 l/m 0,0 km/h SO 8,7 C 18,2 C 0,0 km/h
19.04.2010 10:00 21,6 C 45 % 1013,1 hPa 0,0 l/m 3,2 km/h W 9,2 C 21,6 C 1,8 km/h
19.04.2010 11:00 23,1 C 39 % 1012,9 hPa 0,0 l/m 0,0 km/h NW 8,4 C 23,1 C 0,0 km/h
19.04.2010 12:00 23,4 C 33 % 1012,6 hPa 0,0 l/m 3,9 km/h W 6,2 C 23,4 C 2,2 km/h
19.04.2010 13:00 23,3 C 32 % 1012,3 hPa 0,0 l/m 11,0 km/h NW 5,7 C 22,0 C 6,1 km/h
19.04.2010 14:00 24,6 C 29 % 1012,0 hPa 0,0 l/m 4,5 km/h SW 5,4 C 24,6 C 2,5 km/h
19.04.2010 15:00 26,9 C 28 % 1011,4 hPa 0,0 l/m 20,7 km/h W 6,8 C 25,1 C 11,5 km/h
19.04.2010 16:00 28,3 C 26 % 1011,2 hPa 0,0 l/m 19,4 km/h W 6,9 C 27,0 C 10,8 km/h
19.04.2010 17:00 28,1 C 26 % 1011,1 hPa 0,0 l/m 0,0 km/h N-NW 6,8 C 28,1 C 0,0 km/h
19.04.2010 18:00 23,6 C 29 % 1011,2 hPa 0,0 l/m 0,0 km/h W-NW 4,5 C 23,6 C 0,0 km/h
19.04.2010 19:00 18,2 C 41 % 1011,3 hPa 0,0 l/m 0,0 km/h O 4,7 C 18,2 C 0,0 km/h
19.04.2010 20:00 15,3 C 46 % 1012,2 hPa 0,0 l/m 0,0 km/h SO 3,8 C 15,3 C 0,0 km/h
19.04.2010 21:00 12,1 C 56 % 1013,0 hPa 0,0 l/m 0,0 km/h O-NO 3,6 C 12,1 C 0,0 km/h
19.04.2010 22:00 10,3 C 61 % 1013,2 hPa 0,0 l/m 0,0 km/h O 3,1 C 10,3 C 0,0 km/h
19.04.2010 23:00 8,8 C 67 % 1013,5 hPa 0,0 l/m 0,0 km/h O-SO 3,0 C 8,8 C 0,0 km/h
20.04.2010 00:00 7,5 C 71 % 1013,6 hPa 0,0 l/m 0,0 km/h O-SO 2,6 C 7,5 C 0,0 km/h
20.04.2010 01:00 7,1 C 74 % 1013,6 hPa 0,0 l/m 1,9 km/h O-NO 2,8 C 7,1 C 1,1 km/h
20.04.2010 02:00 6,1 C 76 % 1013,2 hPa 0,0 l/m 0,0 km/h O 2,2 C 6,1 C 0,0 km/h
20.04.2010 03:00 4,9 C 78 % 1013,5 hPa 0,0 l/m 0,0 km/h NO 1,4 C 4,9 C 0,0 km/h
20.04.2010 04:00 5,3 C 77 % 1013,6 hPa 0,0 l/m 0,0 km/h O-NO 1,6 C 5,3 C 0,0 km/h
20.04.2010 05:00 3,9 C 81 % 1013,8 hPa 0,0 l/m 0,0 km/h SO 0,9 C 3,9 C 0,0 km/h
20.04.2010 06:00 3,8 C 84 % 1013,8 hPa 0,0 l/m 0,0 km/h S-SO 1,4 C 3,8 C 0,0 km/h
20.04.2010 07:00 6,7 C 79 % 1014,1 hPa 0,0 l/m 1,9 km/h O-SO 3,3 C 6,7 C 1,1 km/h
20.04.2010 08:00 8,3 C 76 % 1014,7 hPa 0,0 l/m 0,0 km/h O-NO 4,3 C 8,3 C 0,0 km/h
20.04.2010 09:00 10,1 C 74 % 1015,1 hPa 0,0 l/m 0,0 km/h SO 5,7 C 10,1 C 0,0 km/h
20.04.2010 10:00 11,9 C 67 % 1015,2 hPa 0,0 l/m 1,3 km/h O-NO 6,0 C 11,9 C 0,7 km/h
20.04.2010 11:00 11,3 C 72 % 1016,1 hPa 0,0 l/m 0,0 km/h W-SW 6,4 C 11,3 C 0,0 km/h
20.04.2010 12:00 19,9 C 53 % 1015,5 hPa 0,0 l/m 7,1 km/h W 10,0 C 19,6 C 4,0 km/h
20.04.2010 13:00 20,1 C 50 % 1014,9 hPa 0,0 l/m 16,8 km/h S 9,3 C 17,0 C 9,4 km/h
20.04.2010 14:00 21,3 C 45 % 1014,3 hPa 0,0 l/m 24,0 km/h SW 8,9 C 17,3 C 13,3 km/h
20.04.2010 15:00 18,9 C 47 % 1013,4 hPa 0,0 l/m 24,0 km/h SO 7,3 C 14,1 C 13,3 km/h
20.04.2010 16:00 14,4 C 73 % 1014,2 hPa 0,4 l/m 18,8 km/h SO 9,6 C 9,3 C 10,4 km/h
20.04.2010 17:00 22,9 C 47 % 1013,4 hPa 0,0 l/m 22,7 km/h S-SO 11,0 C 19,6 C 12,6 km/h
20.04.2010 18:00 17,9 C 58 % 1013,3 hPa 0,0 l/m 2,6 km/h S-SO 9,5 C 17,9 C 1,4 km/h
20.04.2010 19:00 14,9 C 71 % 1013,3 hPa 0,0 l/m 0,0 km/h N-NO 9,7 C 14,9 C 0,0 km/h
20.04.2010 20:00 13,2 C 71 % 1014,3 hPa 0,0 l/m 0,0 km/h O-NO 8,1 C 13,2 C 0,0 km/h
20.04.2010 21:00 10,7 C 75 % 1014,8 hPa 0,0 l/m 0,0 km/h O-NO 6,5 C 10,7 C 0,0 km/h
20.04.2010 22:00 9,0 C 81 % 1015,4 hPa 0,0 l/m 0,0 km/h SO 5,9 C 9,0 C 0,0 km/h
20.04.2010 23:00 7,4 C 82 % 1015,8 hPa 0,0 l/m 0,0 km/h O-NO 4,5 C 7,4 C 0,0 km/h
21.04.2010 00:00 6,4 C 86 % 1016,2 hPa 0,0 l/m 0,0 km/h O-NO 4,2 C 6,4 C 0,0 km/h
21.04.2010 01:00 5,6 C 87 % 1016,1 hPa 0,0 l/m 0,0 km/h O-NO 3,6 C 5,6 C 0,0 km/h
21.04.2010 02:00 4,8 C 89 % 1016,2 hPa 0,0 l/m 0,0 km/h O-NO 3,1 C 4,8 C 0,0 km/h
21.04.2010 03:00 3,8 C 88 % 1016,2 hPa 0,0 l/m 0,0 km/h NO 2,0 C 3,8 C 0,0 km/h
21.04.2010 04:00 3,3 C 89 % 1015,9 hPa 0,0 l/m 0,0 km/h SO 1,7 C 3,3 C 0,0 km/h
21.04.2010 05:00 1,8 C 90 % 1015,9 hPa 0,0 l/m 0,0 km/h S-SO 0,3 C 1,8 C 0,0 km/h
21.04.2010 06:00 1,6 C 90 % 1015,8 hPa 0,0 l/m 0,0 km/h S-SO 0,1 C 1,6 C 0,0 km/h
21.04.2010 07:00 4,1 C 92 % 1016,0 hPa 0,0 l/m 0,0 km/h SO 2,9 C 4,1 C 0,0 km/h
21.04.2010 08:00 10,7 C 77 % 1016,2 hPa 0,0 l/m 0,0 km/h NW 6,8 C 10,7 C 0,0 km/h
21.04.2010 09:00 11,6 C 66 % 1016,2 hPa 0,0 l/m 0,0 km/h W-NW 5,5 C 11,6 C 0,0 km/h
21.04.2010 10:00 15,9 C 53 % 1016,2 hPa 0,0 l/m 0,0 km/h W-NW 6,3 C 15,9 C 0,0 km/h
21.04.2010 11:00 18,3 C 48 % 1015,8 hPa 0,0 l/m 0,0 km/h W 7,1 C 18,3 C 0,0 km/h
21.04.2010 12:00 18,4 C 45 % 1015,5 hPa 0,0 l/m 0,0 km/h N-NO 6,3 C 18,4 C 0,0 km/h
21.04.2010 13:00 18,1 C 40 % 1014,8 hPa 0,0 l/m 2,6 km/h N-NO 4,3 C 18,1 C 1,4 km/h
21.04.2010 14:00 20,6 C 35 % 1014,4 hPa 0,0 l/m 21,4 km/h W-NW 4,6 C 16,7 C 11,9 km/h
21.04.2010 15:00 22,9 C 32 % 1014,0 hPa 0,0 l/m 0,0 km/h N-NO 5,3 C 22,9 C 0,0 km/h
21.04.2010 16:00 23,3 C 29 % 1013,4 hPa 0,0 l/m 0,0 km/h N-NO 4,3 C 23,3 C 0,0 km/h
21.04.2010 17:00 24,1 C 27 % 1013,3 hPa 0,0 l/m 1,3 km/h N-NO 3,9 C 24,1 C 0,7 km/h
21.04.2010 18:00 20,7 C 27 % 1013,4 hPa 0,0 l/m 0,6 km/h N-NO 1,0 C 20,7 C 0,4 km/h
21.04.2010 19:00 14,8 C 34 % 1013,9 hPa 0,0 l/m 2,6 km/h NO -0,9 C 14,8 C 1,4 km/h
21.04.2010 20:00 9,8 C 46 % 1014,5 hPa 0,0 l/m 0,0 km/h O-NO -1,3 C 9,8 C 0,0 km/h
21.04.2010 21:00 7,4 C 57 % 1014,9 hPa 0,0 l/m 0,0 km/h O-NO -0,5 C 7,4 C 0,0 km/h
21.04.2010 22:00 6,1 C 64 % 1015,2 hPa 0,0 l/m 0,0 km/h O-NO -0,2 C 6,1 C 0,0 km/h
21.04.2010 23:00 4,8 C 70 % 1014,9 hPa 0,0 l/m 0,0 km/h O-NO -0,2 C 4,8 C 0,0 km/h
22.04.2010 00:00 3,5 C 75 % 1015,5 hPa 0,0 l/m 0,0 km/h N-NO -0,5 C 3,5 C 0,0 km/h
22.04.2010 01:00 1,9 C 79 % 1015,5 hPa 0,0 l/m 0,0 km/h NO -1,3 C 1,9 C 0,0 km/h
22.04.2010 02:00 1,3 C 84 % 1015,1 hPa 0,0 l/m 0,0 km/h O-SO -1,1 C 1,3 C 0,0 km/h
22.04.2010 03:00 -0,1 C 85 % 1014,8 hPa 0,0 l/m 0,0 km/h O-SO -2,3 C -0,1 C 0,0 km/h
22.04.2010 04:00 -0,6 C 86 % 1014,9 hPa 0,0 l/m 0,0 km/h O-SO -2,6 C -0,6 C 0,0 km/h
22.04.2010 05:00 -0,7 C 87 % 1014,7 hPa 0,0 l/m 0,0 km/h O-SO -2,6 C -0,7 C 0,0 km/h
22.04.2010 06:00 -0,4 C 88 % 1014,4 hPa 0,0 l/m 0,0 km/h O-SO -2,1 C -0,4 C 0,0 km/h
22.04.2010 07:00 2,9 C 90 % 1014,5 hPa 0,0 l/m 0,0 km/h N-NW 1,4 C 2,9 C 0,0 km/h
22.04.2010 08:00 10,5 C 68 % 1014,6 hPa 0,0 l/m 0,0 km/h W 4,8 C 10,5 C 0,0 km/h
22.04.2010 09:00 13,8 C 54 % 1014,1 hPa 0,0 l/m 1,3 km/h W 4,7 C 13,8 C 0,7 km/h
22.04.2010 10:00 16,2 C 47 % 1013,6 hPa 0,0 l/m 11,0 km/h W 4,9 C 14,0 C 6,1 km/h
22.04.2010 11:00 18,1 C 44 % 1012,8 hPa 0,0 l/m 0,0 km/h NW 5,7 C 18,1 C 0,0 km/h
22.04.2010 12:00 19,3 C 40 % 1012,3 hPa 0,0 l/m 0,0 km/h N-NW 5,4 C 19,3 C 0,0 km/h
22.04.2010 13:00 19,9 C 38 % 1011,5 hPa 0,0 l/m 16,2 km/h W-NW 5,2 C 16,9 C 9,0 km/h
22.04.2010 14:00 22,4 C 34 % 1011,0 hPa 0,0 l/m 21,4 km/h NW 5,8 C 19,1 C 11,9 km/h
22.04.2010 15:00 20,7 C 36 % 1010,1 hPa 0,0 l/m 0,0 km/h W-NW 5,1 C 20,7 C 0,0 km/h
22.04.2010 16:00 24,3 C 31 % 1009,5 hPa 0,0 l/m 22,7 km/h O 6,1 C 21,4 C 12,6 km/h
22.04.2010 17:00 25,9 C 28 % 1009,2 hPa 0,0 l/m 1,9 km/h N-NO 6,0 C 25,9 C 1,1 km/h
22.04.2010 18:00 20,0 C 34 % 1009,0 hPa 0,0 l/m 1,9 km/h N-NO 3,7 C 20,0 C 1,1 km/h
22.04.2010 19:00 14,6 C 42 % 1009,2 hPa 0,0 l/m 0,0 km/h W-SW 1,8 C 14,6 C 0,0 km/h
22.04.2010 20:00 9,9 C 57 % 1009,5 hPa 0,0 l/m 0,0 km/h SO 1,8 C 9,9 C 0,0 km/h
22.04.2010 21:00 8,7 C 65 % 1010,0 hPa 0,0 l/m 0,0 km/h SO 2,5 C 8,7 C 0,0 km/h
22.04.2010 22:00 7,3 C 69 % 1009,8 hPa 0,0 l/m 0,0 km/h O-SO 2,0 C 7,3 C 0,0 km/h
22.04.2010 23:00 5,6 C 77 % 1009,7 hPa 0,0 l/m 0,0 km/h O-SO 1,9 C 5,6 C 0,0 km/h
23.04.2010 00:00 5,6 C 79 % 1009,7 hPa 0,0 l/m 0,0 km/h O-NO 2,3 C 5,6 C 0,0 km/h
23.04.2010 01:00 4,5 C 80 % 1009,6 hPa 0,0 l/m 0,0 km/h O 1,4 C 4,5 C 0,0 km/h
23.04.2010 02:00 3,8 C 84 % 1009,3 hPa 0,0 l/m 0,0 km/h O-SO 1,4 C 3,8 C 0,0 km/h
23.04.2010 03:00 2,4 C 86 % 1009,5 hPa 0,0 l/m 0,0 km/h NO 0,3 C 2,4 C 0,0 km/h
23.04.2010 04:00 2,1 C 87 % 1009,8 hPa 0,0 l/m 0,0 km/h NO 0,2 C 2,1 C 0,0 km/h
23.04.2010 05:00 1,3 C 87 % 1009,7 hPa 0,0 l/m 0,0 km/h SO -0,6 C 1,3 C 0,0 km/h
23.04.2010 06:00 0,0 C 88 % 1010,0 hPa 0,0 l/m 0,0 km/h O-SO -1,7 C 0,0 C 0,0 km/h
23.04.2010 07:00 3,9 C 90 % 1010,4 hPa 0,0 l/m 0,0 km/h W 2,4 C 3,9 C 0,0 km/h
23.04.2010 08:00 10,3 C 69 % 1010,8 hPa 0,0 l/m 0,0 km/h W 4,9 C 10,3 C 0,0 km/h
23.04.2010 09:00 14,2 C 53 % 1010,5 hPa 0,0 l/m 0,0 km/h W-SW 4,8 C 14,2 C 0,0 km/h
23.04.2010 10:00 15,8 C 49 % 1010,5 hPa 0,0 l/m 0,0 km/h S 5,1 C 15,8 C 0,0 km/h
23.04.2010 11:00 17,2 C 48 % 1010,5 hPa 0,0 l/m 0,0 km/h W-NW 6,1 C 17,2 C 0,0 km/h
23.04.2010 12:00 19,7 C 43 % 1010,1 hPa 0,0 l/m 0,6 km/h NW 6,8 C 19,7 C 0,4 km/h
23.04.2010 13:00 21,3 C 39 % 1009,6 hPa 0,0 l/m 0,0 km/h W-NW 6,8 C 21,3 C 0,0 km/h
23.04.2010 14:00 23,1 C 34 % 1009,5 hPa 0,0 l/m 15,6 km/h O-SO 6,4 C 20,9 C 8,6 km/h
23.04.2010 15:00 26,3 C 31 % 1009,3 hPa 0,0 l/m 0,0 km/h NO 7,8 C 26,3 C 0,0 km/h
23.04.2010 16:00 27,9 C 24 % 1009,1 hPa 0,0 l/m 8,4 km/h N-NO 5,5 C 27,6 C 4,7 km/h
23.04.2010 17:00 28,1 C 23 % 1009,2 hPa 0,0 l/m 13,6 km/h NO 5,0 C 27,2 C 7,6 km/h
23.04.2010 18:00 25,3 C 24 % 1009,5 hPa 0,0 l/m 0,0 km/h N-NO 3,3 C 25,3 C 0,0 km/h
23.04.2010 19:00 19,9 C 27 % 1010,2 hPa 0,0 l/m 3,2 km/h NO 0,4 C 19,9 C 1,8 km/h
23.04.2010 20:00 14,4 C 40 % 1011,2 hPa 0,0 l/m 0,0 km/h O-SO 1,0 C 14,4 C 0,0 km/h
23.04.2010 21:00 9,3 C 58 % 1012,0 hPa 0,0 l/m 0,0 km/h O-NO 1,5 C 9,3 C 0,0 km/h
23.04.2010 22:00 7,3 C 66 % 1012,6 hPa 0,0 l/m 0,0 km/h O-SO 1,4 C 7,3 C 0,0 km/h
23.04.2010 23:00 7,5 C 64 % 1012,8 hPa 0,0 l/m 2,6 km/h NO 1,1 C 7,5 C 1,4 km/h
24.04.2010 00:00 5,9 C 67 % 1013,2 hPa 0,0 l/m 0,0 km/h N-NO 0,3 C 5,9 C 0,0 km/h
24.04.2010 01:00 5,5 C 68 % 1013,4 hPa 0,0 l/m 0,0 km/h NO 0,1 C 5,5 C 0,0 km/h
24.04.2010 02:00 4,3 C 72 % 1013,7 hPa 0,0 l/m 0,0 km/h NO -0,3 C 4,3 C 0,0 km/h
24.04.2010 03:00 3,5 C 74 % 1014,0 hPa 0,0 l/m 0,0 km/h NO -0,7 C 3,5 C 0,0 km/h
24.04.2010 04:00 3,3 C 76 % 1014,4 hPa 0,0 l/m 0,0 km/h NO -0,5 C 3,3 C 0,0 km/h
24.04.2010 05:00 2,3 C 78 % 1014,8 hPa 0,0 l/m 0,0 km/h NO -1,1 C 2,3 C 0,0 km/h
24.04.2010 06:00 2,1 C 81 % 1015,2 hPa 0,0 l/m 0,0 km/h NO -0,8 C 2,1 C 0,0 km/h
24.04.2010 07:00 5,5 C 76 % 1015,8 hPa 0,0 l/m 0,0 km/h SW 1,6 C 5,5 C 0,0 km/h
24.04.2010 08:00 16,1 C 47 % 1016,3 hPa 0,0 l/m 0,0 km/h W 4,8 C 16,1 C 0,0 km/h
24.04.2010 09:00 18,5 C 41 % 1016,3 hPa 0,0 l/m 0,0 km/h W 5,0 C 18,5 C 0,0 km/h
24.04.2010 10:00 21,1 C 36 % 1016,3 hPa 0,0 l/m 3,2 km/h SO 5,4 C 21,1 C 1,8 km/h
24.04.2010 11:00 21,6 C 37 % 1016,3 hPa 0,0 l/m 1,3 km/h N 6,3 C 21,6 C 0,7 km/h
24.04.2010 12:00 23,3 C 38 % 1015,8 hPa 0,0 l/m 5,8 km/h N-NW 8,2 C 23,3 C 3,2 km/h
24.04.2010 13:00 24,2 C 33 % 1015,3 hPa 0,0 l/m 6,5 km/h N-NO 6,9 C 24,2 C 3,6 km/h
24.04.2010 14:00 26,1 C 28 % 1015,1 hPa 0,0 l/m 8,4 km/h W 6,2 C 25,7 C 4,7 km/h
24.04.2010 15:00 28,9 C 23 % 1014,7 hPa 0,0 l/m 12,3 km/h N-NO 5,7 C 28,3 C 6,8 km/h
24.04.2010 16:00 29,9 C 21 % 1014,4 hPa 0,0 l/m 3,2 km/h N-NO 5,2 C 29,9 C 1,8 km/h
24.04.2010 17:00 31,8 C 19 % 1014,3 hPa 0,0 l/m 20,1 km/h N-NO 5,3 C 31,4 C 11,2 km/h
24.04.2010 18:00 27,3 C 20 % 1014,4 hPa 0,0 l/m 0,0 km/h N-NO 2,4 C 27,3 C 0,0 km/h
24.04.2010 19:00 22,1 C 26 % 1015,0 hPa 0,0 l/m 0,0 km/h S-SO 1,7 C 22,1 C 0,0 km/h
24.04.2010 20:00 14,7 C 43 % 1016,0 hPa 0,0 l/m 3,2 km/h O-NO 2,3 C 14,7 C 1,8 km/h
24.04.2010 21:00 12,3 C 53 % 1017,0 hPa 0,0 l/m 0,0 km/h O-NO 3,0 C 12,3 C 0,0 km/h
24.04.2010 22:00 11,2 C 57 % 1017,2 hPa 0,0 l/m 0,0 km/h NO 3,0 C 11,2 C 0,0 km/h
24.04.2010 23:00 11,2 C 56 % 1017,6 hPa 0,0 l/m 1,3 km/h O-NO 2,8 C 11,2 C 0,7 km/h
25.04.2010 00:00 9,0 C 64 % 1017,7 hPa 0,0 l/m 0,0 km/h O-NO 2,6 C 9,0 C 0,0 km/h
25.04.2010 01:00 7,1 C 71 % 1018,0 hPa 0,0 l/m 0,0 km/h NO 2,2 C 7,1 C 0,0 km/h
25.04.2010 02:00 6,4 C 76 % 1018,2 hPa 0,0 l/m 0,0 km/h NO 2,5 C 6,4 C 0,0 km/h
25.04.2010 03:00 5,9 C 76 % 1018,6 hPa 0,0 l/m 0,0 km/h O 2,0 C 5,9 C 0,0 km/h
25.04.2010 04:00 5,7 C 76 % 1018,7 hPa 0,0 l/m 0,0 km/h O-NO 1,8 C 5,7 C 0,0 km/h
25.04.2010 05:00 5,3 C 78 % 1019,0 hPa 0,0 l/m 0,0 km/h O-NO 1,8 C 5,3 C 0,0 km/h
25.04.2010 06:00 5,4 C 78 % 1019,6 hPa 0,0 l/m 0,0 km/h O-NO 1,9 C 5,4 C 0,0 km/h
25.04.2010 07:00 8,4 C 76 % 1020,0 hPa 0,0 l/m 0,0 km/h O-NO 4,4 C 8,4 C 0,0 km/h
25.04.2010 08:00 18,6 C 49 % 1020,5 hPa 0,0 l/m 0,0 km/h W-NW 7,7 C 18,6 C 0,0 km/h
25.04.2010 09:00 22,6 C 40 % 1020,5 hPa 0,0 l/m 0,0 km/h W-SW 8,3 C 22,6 C 0,0 km/h
25.04.2010 10:00 24,3 C 38 % 1020,4 hPa 0,0 l/m 0,0 km/h W 9,1 C 24,3 C 0,0 km/h
25.04.2010 11:00 25,8 C 37 % 1020,2 hPa 0,0 l/m 3,2 km/h NO 10,0 C 25,8 C 1,8 km/h
25.04.2010 12:00 26,4 C 31 % 1019,8 hPa 0,0 l/m 7,8 km/h NW 7,9 C 26,1 C 4,3 km/h
25.04.2010 13:00 27,2 C 30 % 1019,4 hPa 0,0 l/m 0,0 km/h W-SW 8,1 C 27,2 C 0,0 km/h
25.04.2010 14:00 28,6 C 31 % 1019,4 hPa 0,0 l/m 8,4 km/h S 9,8 C 28,3 C 4,7 km/h
25.04.2010 15:00 28,1 C 32 % 1019,0 hPa 0,0 l/m 5,8 km/h W-SW 9,8 C 28,1 C 3,2 km/h
25.04.2010 16:00 32,5 C 25 % 1018,7 hPa 0,0 l/m 0,0 km/h SW 9,9 C 32,5 C 0,0 km/h
25.04.2010 17:00 30,6 C 29 % 1018,6 hPa 0,0 l/m 0,0 km/h N-NW 10,5 C 30,6 C 0,0 km/h
25.04.2010 18:00 25,3 C 31 % 1018,6 hPa 0,0 l/m 0,0 km/h N-NW 6,9 C 25,3 C 0,0 km/h
25.04.2010 19:00 21,1 C 44 % 1018,8 hPa 0,0 l/m 0,0 km/h O-SO 8,4 C 21,1 C 0,0 km/h
25.04.2010 20:00 16,7 C 55 % 1019,3 hPa 0,0 l/m 0,0 km/h O-NO 7,6 C 16,7 C 0,0 km/h
25.04.2010 21:00 14,2 C 61 % 1019,8 hPa 0,0 l/m 0,0 km/h NO 6,8 C 14,2 C 0,0 km/h
25.04.2010 22:00 12,9 C 65 % 1020,0 hPa 0,0 l/m 0,0 km/h SO 6,5 C 12,9 C 0,0 km/h
25.04.2010 23:00 10,7 C 73 % 1020,2 hPa 0,0 l/m 0,0 km/h N-NO 6,1 C 10,7 C 0,0 km/h
Min-Datum _ 22.04.10 24.04.10 22.04.10 - 19.04.10 - 22.04.10 22.04.10 19.04.10
_ Min-Zeit 05:53 17:53 18:53 - 00:53 - 04:53 05:53 00:53
Minimum _ -0,7 C 19 % 1009,0 hPa - 0,0 km/h - -2,6 C -0,7 C 0,0 km/h
Max-Datum _ 25.04.10 21.04.10 25.04.10 20.04.10 20.04.10 - 20.04.10 25.04.10 20.04.10
_ Max-Zeit 16:53 07:53 08:53 16:53 14:53 - 17:53 16:53 14:53
Maximum _ 32,5 C 92 % 1020,5 hPa 0,4 l/m 24,0 km/h
SW
- 11,0 C 32,5 C 13,3 km/h
SW
Durchschnitt _ 13,6 C 58 % 1014,1 hPa #0,4 l/m 2,5 km/h O-NO 4,0 C 13,3 C 1,4 km/h